LSGB weather

Bex Airport
Bex, Canton of Vaud, Switzerland

Public forecast

Using degrees Celsius for public forecast. Weather courtesy of forecast.io.

Closest aviation weather report (METAR) to Bex Airport

Closest report is Sion Airport, 14.3 nm (26.5 km) E. Retrieved 2019/12/13 15:20 UTC (38 minutes ago):

LSGS 131520Z VRB01KT 5000 -SN OVC013 01/01 Q0993 R/SNOCLO

Closest aviation forecast (TAF) to Bex Airport

Closest forecast is Payerne Air Base, 35.2 nm (65.3 km) N. Retrieved 2019/12/13 10:00 UTC (6 hours ago):

TAF LSMP 130925Z 1310/1416 22015KT 9999 -SHRA FEW025 BKN040 TEMPO 1310/1315 SHRA PROB30 TEMPO 1314/1318 28020G35KT 4500 SHRAGS FEW020TCU TEMPO 1323/1412 RA PROB30 TEMPO 1400/1404 4500 RASN OVC009